createdAt,value
2023-03-22T00:02:16.575Z,8.80
2023-03-22T00:04:44.665Z,10.60
2023-03-22T00:07:12.856Z,13.80
2023-03-22T00:09:41.042Z,12.90
2023-03-22T00:12:09.193Z,10.40
2023-03-22T00:14:37.256Z,8.40
2023-03-22T00:17:05.335Z,7.40
2023-03-22T00:19:34.319Z,7.00
2023-03-22T00:22:05.778Z,9.20
2023-03-22T00:24:34.058Z,14.50
2023-03-22T00:27:02.046Z,15.90
2023-03-22T00:29:30.748Z,10.90
2023-03-22T00:31:58.796Z,11.60
2023-03-22T00:34:31.688Z,10.10
2023-03-22T00:36:59.820Z,5.90
2023-03-22T00:39:28.240Z,6.40
2023-03-22T00:41:56.392Z,9.20
2023-03-22T00:44:24.678Z,8.80
2023-03-22T00:46:53.047Z,6.70
2023-03-22T00:49:22.055Z,10.20
2023-03-22T00:51:50.417Z,16.30
2023-03-22T00:54:19.210Z,16.90
2023-03-22T00:56:47.591Z,17.00
2023-03-22T00:59:17.308Z,13.80
2023-03-22T01:01:45.451Z,9.80
2023-03-22T01:04:18.270Z,11.10
2023-03-22T01:06:47.335Z,7.60
2023-03-22T01:09:15.825Z,4.80
2023-03-22T01:11:45.844Z,8.10
2023-03-22T01:14:14.151Z,5.30
2023-03-22T01:16:42.567Z,6.20
2023-03-22T01:19:10.969Z,6.60
2023-03-22T01:21:39.868Z,8.40
2023-03-22T01:24:08.486Z,7.50
2023-03-22T01:26:37.989Z,7.90
2023-03-22T01:29:06.442Z,4.40
2023-03-22T01:31:35.122Z,7.40
2023-03-22T01:34:04.116Z,4.90
2023-03-22T01:36:32.816Z,8.30
2023-03-22T01:39:00.917Z,10.60
2023-03-22T01:41:29.277Z,20.80
2023-03-22T01:44:13.722Z,15.60
2023-03-22T01:49:23.691Z,13.80
2023-03-22T01:51:55.325Z,14.70
2023-03-22T01:54:52.808Z,16.00
2023-03-22T01:57:41.458Z,12.10
2023-03-22T02:00:16.109Z,10.90
2023-03-22T02:03:04.537Z,7.00
2023-03-22T02:05:37.802Z,8.60
2023-03-22T02:08:09.701Z,9.30
2023-03-22T02:10:52.255Z,7.60
2023-03-22T02:13:42.723Z,6.20
2023-03-22T02:16:44.229Z,6.70
2023-03-22T02:19:29.510Z,5.10
2023-03-22T02:22:43.759Z,9.80
2023-03-22T02:25:35.483Z,5.40
2023-03-22T02:28:06.827Z,4.90
2023-03-22T02:31:12.580Z,14.20
2023-03-22T02:34:15.837Z,8.50
2023-03-22T02:36:53.985Z,5.20
2023-03-22T02:40:08.899Z,7.50
2023-03-22T02:42:40.003Z,5.50
2023-03-22T02:45:08.395Z,4.20
2023-03-22T02:47:44.861Z,10.40
2023-03-22T02:50:28.812Z,5.60
2023-03-22T02:53:09.991Z,4.70
2023-03-22T02:55:40.487Z,6.10
2023-03-22T02:58:40.617Z,9.20
2023-03-22T03:01:35.649Z,7.20
2023-03-22T03:04:09.747Z,7.00
2023-03-22T03:06:46.453Z,9.60
2023-03-22T03:09:20.533Z,8.60
2023-03-22T03:11:51.456Z,6.40
2023-03-22T03:14:28.498Z,8.80
2023-03-22T03:17:18.014Z,5.10
2023-03-22T03:20:17.012Z,7.50
2023-03-22T03:23:31.468Z,5.90
2023-03-22T03:26:49.947Z,7.00
2023-03-22T03:29:37.235Z,6.40
2023-03-22T03:32:19.654Z,5.70
2023-03-22T03:34:55.753Z,6.40
2023-03-22T03:37:31.173Z,8.00
2023-03-22T03:40:11.096Z,8.50
2023-03-22T03:42:46.312Z,9.50
2023-03-22T03:45:16.360Z,6.60
2023-03-22T03:47:55.643Z,9.10
2023-03-22T03:50:25.924Z,11.10
2023-03-22T03:52:56.261Z,11.90
2023-03-22T03:55:25.995Z,12.90
2023-03-22T03:57:54.538Z,10.60
2023-03-22T04:00:22.910Z,10.20
2023-03-22T04:03:11.359Z,11.10
2023-03-22T04:05:52.754Z,10.60
2023-03-22T04:08:20.913Z,13.10
2023-03-22T04:10:52.001Z,13.80
2023-03-22T04:13:21.780Z,13.00
2023-03-22T04:15:58.265Z,15.00
2023-03-22T04:18:29.898Z,10.10
2023-03-22T04:20:59.105Z,8.10
2023-03-22T04:23:28.079Z,8.60
2023-03-22T04:25:59.732Z,14.40
2023-03-22T04:28:36.592Z,9.50
2023-03-22T04:31:04.786Z,69.40
2023-03-22T04:33:55.167Z,30.30
2023-03-22T04:36:50.999Z,11.40
2023-03-22T04:39:32.076Z,10.80
2023-03-22T04:42:29.845Z,8.50
2023-03-22T04:45:06.651Z,8.60
2023-03-22T04:47:36.112Z,8.10
2023-03-22T04:50:08.181Z,14.00
2023-03-22T04:52:42.606Z,9.60
2023-03-22T04:55:10.981Z,8.00
2023-03-22T04:57:39.250Z,9.40
2023-03-22T05:00:08.785Z,9.80
2023-03-22T05:02:41.144Z,10.10
2023-03-22T05:05:11.964Z,13.90
2023-03-22T05:07:41.685Z,9.50
2023-03-22T05:10:11.168Z,7.70
2023-03-22T05:12:39.864Z,9.80
2023-03-22T05:15:24.624Z,12.40
2023-03-22T05:17:53.625Z,10.80
2023-03-22T05:20:21.816Z,30.40
2023-03-22T05:22:57.961Z,16.40
2023-03-22T05:25:27.214Z,10.90
2023-03-22T05:27:55.337Z,11.30
2023-03-22T05:30:44.598Z,12.20
2023-03-22T05:33:22.933Z,12.20
2023-03-22T05:35:54.307Z,14.30
2023-03-22T05:38:23.247Z,11.60
2023-03-22T05:40:52.959Z,12.30
2023-03-22T05:43:21.445Z,16.90
2023-03-22T05:45:51.307Z,30.80
2023-03-22T05:48:33.563Z,56.30
2023-03-22T05:51:03.634Z,38.70
2023-03-22T05:53:33.303Z,32.70
2023-03-22T05:56:18.068Z,22.70
2023-03-22T05:58:47.049Z,22.90
2023-03-22T06:01:17.298Z,21.10
2023-03-22T06:03:49.438Z,26.10
2023-03-22T06:06:28.295Z,18.40
2023-03-22T06:09:18.088Z,18.80
2023-03-22T06:14:18.484Z,20.10
2023-03-22T06:17:01.195Z,17.50
2023-03-22T06:19:29.566Z,19.60
2023-03-22T06:21:58.003Z,24.60
2023-03-22T06:24:27.360Z,16.70
2023-03-22T06:26:56.031Z,21.00
2023-03-22T06:29:24.721Z,19.50
2023-03-22T06:31:54.842Z,21.10
2023-03-22T06:34:23.113Z,18.90
2023-03-22T06:36:51.181Z,17.80
2023-03-22T06:39:29.511Z,25.30
2023-03-22T06:41:57.666Z,38.80
2023-03-22T06:44:26.677Z,21.00
2023-03-22T06:47:05.459Z,17.40
2023-03-22T06:49:59.768Z,21.50
2023-03-22T06:52:38.839Z,19.30
2023-03-22T06:55:07.479Z,27.90
2023-03-22T06:57:35.960Z,17.90
2023-03-22T07:00:05.437Z,16.80
2023-03-22T07:02:33.944Z,23.70
2023-03-22T07:05:14.753Z,18.10
2023-03-22T07:07:42.916Z,14.90
2023-03-22T07:10:11.375Z,18.30
2023-03-22T07:12:39.901Z,12.50
2023-03-22T07:15:12.135Z,13.80
2023-03-22T07:17:53.320Z,13.70
2023-03-22T07:20:21.993Z,13.70
2023-03-22T07:22:51.682Z,16.60
2023-03-22T07:25:21.118Z,15.00
2023-03-22T07:27:50.905Z,17.20
2023-03-22T07:30:19.728Z,12.80
2023-03-22T07:32:48.597Z,13.70
2023-03-22T07:35:17.078Z,14.80
2023-03-22T07:37:45.949Z,12.10
2023-03-22T07:40:24.174Z,12.50
2023-03-22T07:42:54.827Z,13.00
2023-03-22T07:45:59.528Z,11.90
2023-03-22T07:48:45.876Z,13.00
2023-03-22T07:51:52.025Z,11.40
2023-03-22T07:54:33.009Z,13.40
2023-03-22T07:57:03.194Z,19.70
2023-03-22T07:59:32.285Z,12.90
2023-03-22T08:02:00.688Z,11.20
2023-03-22T08:04:32.637Z,12.10
2023-03-22T08:07:14.019Z,9.60
2023-03-22T08:09:42.908Z,14.10
2023-03-22T08:12:12.446Z,12.00
2023-03-22T08:14:40.888Z,13.40
2023-03-22T08:17:14.791Z,11.20
2023-03-22T08:19:43.308Z,12.20
2023-03-22T08:22:13.790Z,10.30
2023-03-22T08:25:18.092Z,12.00
2023-03-22T08:27:46.394Z,13.00
2023-03-22T08:30:15.910Z,11.10
2023-03-22T08:32:44.514Z,13.20
2023-03-22T08:35:12.759Z,39.40
2023-03-22T08:37:41.745Z,86.90
2023-03-22T08:40:12.264Z,53.40
2023-03-22T08:42:52.961Z,16.50
2023-03-22T08:45:24.296Z,11.50
2023-03-22T08:48:00.246Z,15.70
2023-03-22T08:50:28.558Z,14.20
2023-03-22T08:53:06.071Z,10.80
2023-03-22T08:55:37.722Z,11.40
2023-03-22T08:58:13.625Z,9.80
2023-03-22T09:00:56.393Z,11.40
2023-03-22T09:03:45.065Z,13.50
2023-03-22T09:06:14.880Z,11.90
2023-03-22T09:08:43.503Z,12.50
2023-03-22T09:11:16.654Z,13.90
2023-03-22T09:13:48.668Z,11.90
2023-03-22T09:16:17.761Z,10.70
2023-03-22T09:18:47.117Z,10.50
2023-03-22T09:21:19.407Z,18.10
2023-03-22T09:23:52.299Z,34.30
2023-03-22T09:26:24.482Z,11.90
2023-03-22T09:28:53.754Z,10.10
2023-03-22T09:31:22.401Z,10.80
2023-03-22T09:33:59.263Z,10.90
2023-03-22T09:36:28.143Z,12.20
2023-03-22T09:38:56.800Z,10.10
2023-03-22T09:41:39.836Z,10.30
2023-03-22T09:44:38.092Z,14.50
2023-03-22T09:47:15.944Z,15.80
2023-03-22T09:49:53.688Z,11.70
2023-03-22T09:52:22.869Z,7.70
2023-03-22T09:54:53.143Z,12.20
2023-03-22T09:57:29.565Z,9.70
2023-03-22T10:00:12.713Z,8.30
2023-03-22T10:02:40.814Z,11.20
2023-03-22T10:05:31.381Z,8.40
2023-03-22T10:08:14.709Z,10.20
2023-03-22T10:13:18.230Z,16.50
2023-03-22T10:15:52.476Z,7.70
2023-03-22T10:18:24.976Z,7.30
2023-03-22T10:21:03.439Z,7.20
2023-03-22T10:24:10.111Z,8.00
2023-03-22T10:26:45.372Z,7.50
2023-03-22T10:29:26.056Z,8.90
2023-03-22T10:31:55.298Z,7.20
2023-03-22T10:34:31.469Z,6.70
2023-03-22T10:37:04.448Z,9.70
2023-03-22T10:39:39.891Z,6.90
2023-03-22T10:42:15.722Z,6.60
2023-03-22T10:45:00.854Z,5.90
2023-03-22T10:47:44.674Z,7.70
2023-03-22T10:50:28.786Z,8.00
2023-03-22T10:53:08.349Z,8.70
2023-03-22T10:55:42.359Z,6.50
2023-03-22T10:58:17.201Z,8.10
2023-03-22T11:00:52.554Z,8.00
2023-03-22T11:03:34.874Z,8.50
2023-03-22T11:06:11.140Z,10.90
2023-03-22T11:08:51.197Z,9.20
2023-03-22T11:11:28.573Z,10.00
2023-03-22T11:14:01.849Z,8.20
2023-03-22T11:16:31.690Z,8.40
2023-03-22T11:19:02.391Z,9.30
2023-03-22T11:21:33.466Z,7.60
2023-03-22T11:24:05.874Z,5.80
2023-03-22T11:26:40.531Z,7.10
2023-03-22T11:29:18.369Z,10.90
2023-03-22T11:31:49.783Z,12.70
2023-03-22T11:34:20.216Z,7.20
2023-03-22T11:36:56.903Z,6.80
2023-03-22T11:39:29.009Z,8.10
2023-03-22T11:42:04.027Z,7.50
2023-03-22T11:44:36.002Z,15.00
2023-03-22T11:47:04.871Z,13.50
2023-03-22T11:49:46.725Z,7.40
2023-03-22T11:52:22.947Z,6.30
2023-03-22T11:54:51.884Z,6.60
2023-03-22T11:57:26.500Z,6.80
2023-03-22T12:00:12.247Z,8.40
2023-03-22T12:02:55.281Z,7.90
2023-03-22T12:05:28.519Z,7.70
2023-03-22T12:10:38.722Z,4.70
2023-03-22T12:13:32.460Z,4.90
2023-03-22T12:16:05.088Z,6.60
2023-03-22T12:21:32.329Z,5.40
2023-03-22T12:24:03.599Z,7.30
2023-03-22T12:26:33.814Z,6.50
2023-03-22T12:29:18.428Z,6.80
2023-03-22T12:32:16.135Z,6.80
2023-03-22T12:34:52.540Z,6.20
2023-03-22T12:37:34.668Z,8.70
2023-03-22T12:40:34.764Z,7.10
2023-03-22T12:43:14.045Z,4.70
2023-03-22T12:45:59.329Z,10.90
2023-03-22T12:49:01.232Z,6.50
2023-03-22T12:51:29.518Z,5.10
2023-03-22T12:53:59.720Z,5.00
2023-03-22T12:56:37.703Z,4.50
2023-03-22T12:59:16.851Z,3.90
2023-03-22T13:02:05.228Z,5.10
2023-03-22T13:04:49.677Z,5.40
2023-03-22T13:07:20.577Z,9.00
2023-03-22T13:09:51.762Z,6.30
2023-03-22T13:12:19.833Z,11.60
2023-03-22T13:14:56.971Z,11.50
2023-03-22T13:17:25.508Z,9.00
2023-03-22T13:19:55.543Z,5.40
2023-03-22T13:22:49.906Z,4.40
2023-03-22T13:25:19.179Z,4.70
2023-03-22T13:28:28.071Z,5.60
2023-03-22T13:30:58.310Z,5.10
2023-03-22T13:33:31.539Z,3.80
2023-03-22T13:38:34.615Z,9.90
2023-03-22T13:41:07.453Z,4.50
2023-03-22T13:43:46.919Z,10.60
2023-03-22T13:46:17.989Z,16.50
2023-03-22T13:48:57.060Z,8.40
2023-03-22T13:51:32.114Z,4.60
2023-03-22T13:54:13.463Z,6.80
2023-03-22T13:56:47.875Z,4.60
2023-03-22T13:59:27.378Z,4.20
2023-03-22T14:02:05.200Z,5.80
2023-03-22T14:04:45.793Z,5.70
2023-03-22T14:07:49.501Z,8.00
2023-03-22T14:10:44.993Z,6.10
2023-03-22T14:13:35.491Z,4.90
2023-03-22T14:16:09.340Z,5.30
2023-03-22T14:18:42.670Z,4.40
2023-03-22T14:21:18.975Z,4.80
